Flower Mound Airport


Codes: 0TS0/
Name: Flower Mound Airport
City: Flower Mound
Country: United States
Elevation: 625 ft.

Photos at Flower Mound Airport


   Photos courtesy of SpottingLog. You can add your own sightings and photos by signing up for a free trial today.



No photos found.

Weather at Flower Mound Airport


Time (UTC)DescriptionTempratureWindCloud coverageVisibilityPressureHumidity
19-Apr-2024 06:00Scattered Clouds17°C16 mph, N50%10000m1017hPa69%
19-Apr-2024 09:00Broken Clouds15°C13 mph, N68%10000m1018hPa73%
19-Apr-2024 12:00Broken Clouds12°C13 mph, N77%10000m1020hPa74%
19-Apr-2024 15:00Overcast Clouds13°C16 mph, N99%10000m1022hPa66%
19-Apr-2024 18:00Overcast Clouds18°C11 mph, NE99%10000m1020hPa59%
19-Apr-2024 21:00Overcast Clouds20°C11 mph, NE100%10000m1018hPa56%
20-Apr-2024 00:00Overcast Clouds20°C7 mph, NE100%10000m1017hPa65%
20-Apr-2024 03:00Overcast Clouds17°C9 mph, NE100%10000m1019hPa84%
20-Apr-2024 06:00Light Rain17°C7 mph, NE100%10000m1018hPa85%
20-Apr-2024 09:00Light Rain16°C9 mph, NE100%10000m1019hPa92%
20-Apr-2024 12:00Light Rain15°C13 mph, NE100%10000m1020hPa94%
20-Apr-2024 15:00Light Rain14°C16 mph, NE100%10000m1022hPa91%
20-Apr-2024 18:00Overcast Clouds12°C16 mph, NE100%10000m1022hPa85%
20-Apr-2024 21:00Light Rain12°C13 mph, NE100%7997m1021hPa89%
21-Apr-2024 00:00Light Rain10°C13 mph, NE100%10000m1021hPa93%
21-Apr-2024 03:00Light Rain9°C13 mph, NE100%10000m1023hPa92%
21-Apr-2024 06:00Light Rain9°C11 mph, NE100%10000m1023hPa94%
21-Apr-2024 09:00Light Rain9°C11 mph, NE100%10000m1023hPa93%
21-Apr-2024 12:00Light Rain9°C11 mph, NE100%10000m1024hPa93%
21-Apr-2024 15:00Overcast Clouds11°C11 mph, NE99%10000m1025hPa83%
21-Apr-2024 18:00Overcast Clouds13°C11 mph, NE100%10000m1025hPa70%
21-Apr-2024 21:00Overcast Clouds15°C9 mph, NE98%10000m1023hPa63%
22-Apr-2024 00:00Overcast Clouds15°C7 mph, NE94%10000m1021hPa68%
22-Apr-2024 03:00Overcast Clouds13°C7 mph, NE100%10000m1022hPa76%
22-Apr-2024 06:00Overcast Clouds13°C4 mph, E100%10000m1022hPa76%
22-Apr-2024 09:00Overcast Clouds13°C4 mph, E100%10000m1020hPa76%
22-Apr-2024 12:00Overcast Clouds13°C4 mph, SE100%10000m1020hPa75%
22-Apr-2024 15:00Overcast Clouds15°C7 mph, S100%10000m1020hPa65%
22-Apr-2024 18:00Overcast Clouds19°C11 mph, S100%10000m1018hPa56%
22-Apr-2024 21:00Overcast Clouds21°C13 mph, S100%10000m1014hPa54%
23-Apr-2024 00:00Broken Clouds20°C13 mph, S83%10000m1013hPa63%
23-Apr-2024 03:00Clear Sky17°C16 mph, S6%10000m1013hPa75%
23-Apr-2024 06:00Clear Sky17°C13 mph, S3%10000m1012hPa77%
23-Apr-2024 09:00Clear Sky16°C11 mph, S0%10000m1012hPa83%
23-Apr-2024 12:00Clear Sky15°C11 mph, S0%10000m1013hPa92%
23-Apr-2024 15:00Clear Sky20°C16 mph, SW9%10000m1014hPa77%
23-Apr-2024 18:00Broken Clouds20°C11 mph, SW51%10000m1014hPa77%
23-Apr-2024 21:00Broken Clouds26°C4 mph, S69%10000m1012hPa56%
24-Apr-2024 00:00Light Rain21°C7 mph, E83%9153m1014hPa83%
24-Apr-2024 03:00Light Rain19°C4 mph, NE96%10000m1017hPa94%